Time;durP1;ratioP1;P1;durP2;ratioP2;P2;SDS_P1;SDS_P2;PMS_P1;PMS_P2;Temp;Humidity;BMP_temperature;BMP_pressure;BME280_temperature;BME280_humidity;BME280_pressure;Samples;Min_cycle;Max_cycle;Signal;HPM_P1;HPM_P2
2022/01/19 00:02:52;;;;;;;5.68;3.10;;;;;;;;;;6231688;28;20046;-83
2022/01/19 00:05:54;;;;;;;3.38;2.88;;;;;;;;;;6269414;28;20048;-79
2022/01/19 00:08:56;;;;;;;3.90;3.00;;;;;;;;;;6260859;28;20040;-82
2022/01/19 00:11:57;;;;;;;4.97;2.85;;;;;;;;;;6247756;28;20041;-81
2022/01/19 00:14:59;;;;;;;3.58;3.10;;;;;;;;;;6266839;28;20067;-80
2022/01/19 00:18:01;;;;;;;3.70;3.30;;;;;;;;;;6265253;28;20049;-81
2022/01/19 00:21:03;;;;;;;5.90;3.50;;;;;;;;;;6264788;28;20065;-82
2022/01/19 00:24:06;;;;;;;4.40;2.92;;;;;;;;;;6265887;28;20043;-80
2022/01/19 00:27:11;;;;;;;3.22;2.25;;;;;;;;;;6237894;28;20060;-80
2022/01/19 00:30:16;;;;;;;;;;;;;;;;;;6242122;28;20123;-80
2022/01/19 00:33:19;;;;;;;4.30;3.50;;;;;;;;;;6240874;28;20007;-82
2022/01/19 00:36:21;;;;;;;5.03;3.05;;;;;;;;;;6242131;28;20041;-82
2022/01/19 00:39:24;;;;;;;3.88;3.13;;;;;;;;;;6261166;28;20144;-80
2022/01/19 00:42:26;;;;;;;4.80;4.18;;;;;;;;;;6248301;28;20068;-81
2022/01/19 00:45:27;;;;;;;6.65;3.60;;;;;;;;;;6282679;28;20533;-82
2022/01/19 00:48:30;;;;;;;4.70;3.80;;;;;;;;;;6264727;28;20521;-79
2022/01/19 00:51:31;;;;;;;5.43;3.40;;;;;;;;;;6265905;28;20060;-78
2022/01/19 00:54:33;;;;;;;3.40;2.90;;;;;;;;;;6262477;28;20525;-81
2022/01/19 00:57:35;;;;;;;3.00;2.65;;;;;;;;;;6245525;28;20073;-81
2022/01/19 01:00:38;;;;;;;4.68;3.53;;;;;;;;;;6279110;28;20052;-82
2022/01/19 01:03:40;;;;;;;4.40;3.28;;;;;;;;;;6245094;28;20060;-81
2022/01/19 01:06:42;;;;;;;5.78;3.90;;;;;;;;;;6262838;28;20052;-82
2022/01/19 01:09:43;;;;;;;4.07;3.33;;;;;;;;;;6246537;28;20041;-82
2022/01/19 01:12:50;;;;;;;4.32;3.28;;;;;;;;;;6245263;28;20049;-81
2022/01/19 01:16:16;;;;;;;3.70;2.90;;;;;;;;;;6241907;28;20056;-80
2022/01/19 01:19:18;;;;;;;4.57;3.50;;;;;;;;;;6221473;28;20132;-81
2022/01/19 01:22:19;;;;;;;6.03;3.80;;;;;;;;;;6277240;28;20048;-79
2022/01/19 01:25:21;;;;;;;4.30;3.30;;;;;;;;;;6246261;28;20041;-82
2022/01/19 01:28:24;;;;;;;3.95;3.40;;;;;;;;;;6262334;28;20051;-82
2022/01/19 01:31:25;;;;;;;5.90;3.25;;;;;;;;;;6262102;28;20132;-82
2022/01/19 01:34:27;;;;;;;4.05;3.00;;;;;;;;;;6228172;28;20410;-79
2022/01/19 01:37:29;;;;;;;3.80;3.10;;;;;;;;;;6238429;28;20048;-81
2022/01/19 01:40:33;;;;;;;3.47;3.17;;;;;;;;;;6257933;28;20112;-79
2022/01/19 01:43:35;;;;;;;4.65;3.20;;;;;;;;;;6268888;28;20045;-82
2022/01/19 01:46:50;;;;;;;3.97;3.42;;;;;;;;;;6269381;28;20436;-80
2022/01/19 01:56:16;;;;;;;5.45;3.47;;;;;;;;;;6246105;28;20049;-79
2022/01/19 01:59:20;;;;;;;9.82;5.63;;;;;;;;;;6286118;28;20052;-79
2022/01/19 02:02:48;;;;;;;7.35;4.13;;;;;;;;;;6268471;28;20037;-81
2022/01/19 02:09:13;;;;;;;9.13;4.43;;;;;;;;;;6269120;28;20044;-81
2022/01/19 02:22:04;;;;;;;8.90;5.20;;;;;;;;;;6267906;28;20064;-81
2022/01/19 02:25:06;;;;;;;5.30;3.10;;;;;;;;;;6250282;28;20052;-81
2022/01/19 02:31:54;;;;;;;4.25;3.13;;;;;;;;;;6268044;28;20526;-82
2022/01/19 02:41:38;;;;;;;3.00;2.50;;;;;;;;;;6277810;28;20041;-81
2022/01/19 02:51:04;;;;;;;3.10;2.58;;;;;;;;;;6269775;28;20045;-80
2022/01/19 02:54:10;;;;;;;3.35;2.50;;;;;;;;;;6267195;28;20045;-82
2022/01/19 02:57:14;;;;;;;4.05;2.80;;;;;;;;;;6283777;28;20229;-78
2022/01/19 03:09:58;;;;;;;3.13;2.53;;;;;;;;;;6286432;28;20044;-79
2022/01/19 03:13:00;;;;;;;4.20;2.70;;;;;;;;;;6265262;28;20049;-79
2022/01/19 03:16:02;;;;;;;2.33;2.08;;;;;;;;;;6262720;28;20129;-82
2022/01/19 03:19:06;;;;;;;3.00;2.70;;;;;;;;;;6268448;28;20045;-81
2022/01/19 03:22:08;;;;;;;3.05;2.30;;;;;;;;;;6267822;28;20057;-79
2022/01/19 03:25:12;;;;;;;2.95;2.10;;;;;;;;;;6283964;28;20049;-82
2022/01/19 03:28:16;;;;;;;3.03;2.70;;;;;;;;;;6292281;28;20052;-81
2022/01/19 03:31:17;;;;;;;4.20;2.67;;;;;;;;;;6269476;28;20044;-82
2022/01/19 03:34:20;;;;;;;2.22;1.95;;;;;;;;;;6266549;28;20167;-82
2022/01/19 03:37:28;;;;;;;3.70;2.50;;;;;;;;;;6251532;28;20069;-83
2022/01/19 03:40:30;;;;;;;1.85;1.75;;;;;;;;;;6283779;28;20174;-82
2022/01/19 03:43:32;;;;;;;2.00;1.60;;;;;;;;;;6250444;28;20122;-79
2022/01/19 03:46:53;;;;;;;2.33;2.05;;;;;;;;;;6263414;28;20037;-79
2022/01/19 03:49:56;;;;;;;2.35;1.88;;;;;;;;;;6266939;28;20095;-82
2022/01/19 03:52:57;;;;;;;2.53;2.20;;;;;;;;;;6250309;28;20494;-82
2022/01/19 03:55:59;;;;;;;2.63;2.42;;;;;;;;;;6261187;28;20107;-81
2022/01/19 03:59:01;;;;;;;2.50;2.30;;;;;;;;;;6284312;28;20057;-80
2022/01/19 04:02:03;;;;;;;4.82;3.10;;;;;;;;;;6252975;28;20111;-82
2022/01/19 04:05:14;;;;;;;3.15;2.85;;;;;;;;;;6266032;28;20072;-80
2022/01/19 04:08:16;;;;;;;3.20;2.60;;;;;;;;;;6267130;28;20037;-82
2022/01/19 04:11:20;;;;;;;4.97;3.40;;;;;;;;;;6250553;28;20056;-81
2022/01/19 04:14:22;;;;;;;6.90;3.88;;;;;;;;;;6242701;28;20045;-81
2022/01/19 04:17:24;;;;;;;4.60;3.60;;;;;;;;;;6252221;28;20126;-82
2022/01/19 04:20:26;;;;;;;4.90;4.15;;;;;;;;;;6275286;28;20121;-79
2022/01/19 04:23:33;;;;;;;5.05;4.07;;;;;;;;;;6258216;28;20483;-82
2022/01/19 04:26:36;;;;;;;9.40;8.40;;;;;;;;;;6262905;28;20037;-82
2022/01/19 04:29:39;;;;;;;5.45;4.18;;;;;;;;;;6276565;28;20048;-82
2022/01/19 04:32:51;;;;;;;5.63;4.13;;;;;;;;;;6262548;28;20056;-81
2022/01/19 04:36:06;;;;;;;7.53;4.82;;;;;;;;;;6263906;28;20041;-82
2022/01/19 04:54:13;;;;;;;9.43;5.38;;;;;;;;;;6257086;28;20049;-79
2022/01/19 05:03:08;;;;;;;6.38;5.38;;;;;;;;;;6264663;28;20040;-82
2022/01/19 05:06:20;;;;;;;6.65;5.35;;;;;;;;;;6267155;28;20091;-79
2022/01/19 05:09:53;;;;;;;6.90;5.28;;;;;;;;;;6281322;28;20037;-83
2022/01/19 05:16:10;;;;;;;6.53;4.93;;;;;;;;;;6267810;28;20458;-83
2022/01/19 05:19:12;;;;;;;6.50;4.85;;;;;;;;;;6270773;28;20060;-82
2022/01/19 05:22:17;;;;;;;6.32;4.57;;;;;;;;;;6270066;28;20130;-79
2022/01/19 05:25:20;;;;;;;5.38;4.80;;;;;;;;;;6270121;28;20045;-82
2022/01/19 05:28:32;;;;;;;7.35;4.68;;;;;;;;;;6270446;28;20108;-79
2022/01/19 05:31:34;;;;;;;5.63;4.50;;;;;;;;;;6291751;28;20044;-80
2022/01/19 05:34:35;;;;;;;5.95;4.65;;;;;;;;;;6271449;28;20047;-80
2022/01/19 05:37:51;;;;;;;4.97;3.78;;;;;;;;;;6260016;28;20041;-81
2022/01/19 05:40:55;;;;;;;5.90;4.70;;;;;;;;;;6268522;28;20454;-80
2022/01/19 05:43:57;;;;;;;5.72;4.40;;;;;;;;;;6271493;28;20061;-83
2022/01/19 05:46:58;;;;;;;7.13;4.18;;;;;;;;;;6271169;28;20037;-83
2022/01/19 05:50:00;;;;;;;5.88;4.45;;;;;;;;;;6272129;28;20055;-84
2022/01/19 05:53:02;;;;;;;6.30;4.60;;;;;;;;;;6262982;28;20103;-85
2022/01/19 05:56:04;;;;;;;4.75;3.80;;;;;;;;;;6248705;28;20125;-86
2022/01/19 05:59:11;;;;;;;5.65;3.63;;;;;;;;;;6288225;28;20172;-83
2022/01/19 06:02:13;;;;;;;5.00;4.10;;;;;;;;;;6261278;28;20049;-82
2022/01/19 06:05:15;;;;;;;4.65;3.22;;;;;;;;;;6244241;28;20041;-84
2022/01/19 06:08:43;;;;;;;4.88;3.33;;;;;;;;;;6244563;28;20213;-83
2022/01/19 06:11:48;;;;;;;4.75;3.75;;;;;;;;;;6260723;28;20410;-83
2022/01/19 06:14:50;;;;;;;4.80;3.70;;;;;;;;;;6244042;28;20446;-84
2022/01/19 06:17:52;;;;;;;4.80;3.58;;;;;;;;;;6244578;28;20456;-85
2022/01/19 06:20:54;;;;;;;6.65;3.90;;;;;;;;;;6260432;28;20033;-86
2022/01/19 06:24:02;;;;;;;5.03;3.58;;;;;;;;;;6246289;28;20116;-83
2022/01/19 06:27:04;;;;;;;6.47;4.32;;;;;;;;;;6269411;28;20045;-83
2022/01/19 06:30:07;;;;;;;6.38;4.22;;;;;;;;;;6269945;28;20186;-85
2022/01/19 06:33:09;;;;;;;5.63;4.07;;;;;;;;;;6278324;28;20081;-83
2022/01/19 06:36:14;;;;;;;9.13;5.43;;;;;;;;;;6278820;28;20041;-84
2022/01/19 06:39:24;;;;;;;4.75;3.75;;;;;;;;;;6279640;28;20101;-87
2022/01/19 06:42:38;;;;;;;4.67;3.70;;;;;;;;;;6271492;28;20048;-86
2022/01/19 06:45:40;;;;;;;4.45;3.67;;;;;;;;;;6275934;28;20047;-86
2022/01/19 06:48:42;;;;;;;4.70;3.85;;;;;;;;;;6265013;28;20096;-86
2022/01/19 06:51:46;;;;;;;5.88;4.07;;;;;;;;;;6262437;28;20426;-85
2022/01/19 06:54:48;;;;;;;8.20;5.45;;;;;;;;;;6272836;28;20037;-84
2022/01/19 06:57:50;;;;;;;6.60;5.10;;;;;;;;;;6287354;28;20041;-86
2022/01/19 07:01:03;;;;;;;6.38;4.10;;;;;;;;;;6271334;28;20071;-84
2022/01/19 07:04:22;;;;;;;12.23;7.20;;;;;;;;;;6287807;28;20136;-84
2022/01/19 07:07:24;;;;;;;5.78;3.50;;;;;;;;;;6290008;28;20120;-86
2022/01/19 07:10:32;;;;;;;4.53;3.45;;;;;;;;;;6272726;28;20502;-86
2022/01/19 07:13:34;;;;;;;5.85;4.22;;;;;;;;;;6289333;28;20061;-85
2022/01/19 07:16:36;;;;;;;5.63;3.97;;;;;;;;;;6262452;28;20064;-84
2022/01/19 07:19:38;;;;;;;7.47;4.38;;;;;;;;;;6243460;28;20044;-83
2022/01/19 07:22:40;;;;;;;7.50;4.32;;;;;;;;;;6245897;28;20116;-84
2022/01/19 07:25:43;;;;;;;6.77;4.70;;;;;;;;;;6261799;28;20041;-85
2022/01/19 07:28:45;;;;;;;5.43;4.40;;;;;;;;;;6253327;28;20451;-86
2022/01/19 07:31:48;;;;;;;7.40;5.28;;;;;;;;;;6269985;28;20045;-83
2022/01/19 07:34:52;;;;;;;25.95;17.38;;;;;;;;;;6286969;28;20120;-84
2022/01/19 07:37:54;;;;;;;17.55;11.35;;;;;;;;;;6270987;28;20044;-83
2022/01/19 07:40:56;;;;;;;16.83;10.95;;;;;;;;;;6260453;28;20045;-86
2022/01/19 07:43:58;;;;;;;13.65;8.63;;;;;;;;;;6245891;28;20521;-85
2022/01/19 07:47:20;;;;;;;7.65;4.80;;;;;;;;;;6258057;28;20387;-83
2022/01/19 07:50:42;;;;;;;12.95;8.60;;;;;;;;;;6265122;28;20070;-81
2022/01/19 07:54:04;;;;;;;19.67;14.40;;;;;;;;;;6284706;28;20053;-85
2022/01/19 07:57:29;;;;;;;7.68;5.05;;;;;;;;;;6275677;28;20044;-84
2022/01/19 08:01:00;;;;;;;9.13;5.45;;;;;;;;;;6295995;28;20041;-85
2022/01/19 08:04:17;;;;;;;7.43;4.50;;;;;;;;;;6288927;28;20041;-85
2022/01/19 08:07:19;;;;;;;6.95;4.40;;;;;;;;;;6271578;28;20087;-83
2022/01/19 08:10:23;;;;;;;7.35;4.70;;;;;;;;;;6271909;28;20581;-83
2022/01/19 08:13:25;;;;;;;9.33;4.87;;;;;;;;;;6271080;28;20235;-84
2022/01/19 08:16:29;;;;;;;7.78;4.68;;;;;;;;;;6287848;28;20879;-83
2022/01/19 08:19:31;;;;;;;7.53;4.47;;;;;;;;;;6266472;28;20652;-82
2022/01/19 08:22:34;;;;;;;10.20;5.55;;;;;;;;;;6252270;28;20041;-83
2022/01/19 08:25:53;;;;;;;9.35;5.35;;;;;;;;;;6265403;28;20041;-83
2022/01/19 08:28:55;;;;;;;9.93;5.25;;;;;;;;;;6272155;28;20041;-83
2022/01/19 08:31:57;;;;;;;8.07;5.07;;;;;;;;;;6278784;28;20048;-84
2022/01/19 08:35:48;;;;;;;9.75;5.28;;;;;;;;;;6260657;28;20049;-82
2022/01/19 08:39:07;;;;;;;10.07;5.35;;;;;;;;;;6272479;28;20128;-83
2022/01/19 08:42:11;;;;;;;9.43;5.03;;;;;;;;;;6265889;28;20151;-82
2022/01/19 08:45:13;;;;;;;7.32;4.65;;;;;;;;;;6288705;28;20060;-86
2022/01/19 08:48:14;;;;;;;11.18;5.93;;;;;;;;;;6278905;28;20064;-84
2022/01/19 08:51:22;;;;;;;11.90;6.10;;;;;;;;;;6281477;28;20104;-84
2022/01/19 08:54:30;;;;;;;7.15;4.57;;;;;;;;;;6281381;28;20029;-85
2022/01/19 08:57:35;;;;;;;7.68;4.32;;;;;;;;;;6266793;28;20037;-82
2022/01/19 09:00:37;;;;;;;11.35;6.40;;;;;;;;;;6277721;28;20045;-82
2022/01/19 09:03:39;;;;;;;9.32;5.45;;;;;;;;;;6260732;28;20045;-86
2022/01/19 09:06:41;;;;;;;12.77;5.55;;;;;;;;;;6294716;28;20094;-86
2022/01/19 09:09:43;;;;;;;8.52;5.45;;;;;;;;;;6277005;28;20041;-84
2022/01/19 09:12:45;;;;;;;6.82;3.75;;;;;;;;;;6279885;28;20044;-84
2022/01/19 09:15:47;;;;;;;9.82;5.20;;;;;;;;;;6281151;28;20060;-83
2022/01/19 09:18:49;;;;;;;7.32;4.55;;;;;;;;;;6273242;28;20507;-82
2022/01/19 09:21:51;;;;;;;10.68;5.53;;;;;;;;;;6282072;28;20047;-83
2022/01/19 09:24:52;;;;;;;6.88;4.30;;;;;;;;;;6269565;28;20079;-84
2022/01/19 09:27:54;;;;;;;7.55;4.82;;;;;;;;;;6272526;28;20432;-81
2022/01/19 09:31:01;;;;;;;10.00;4.95;;;;;;;;;;6271799;28;20052;-84
2022/01/19 09:34:14;;;;;;;10.00;5.35;;;;;;;;;;6268083;28;20120;-84
2022/01/19 09:37:16;;;;;;;9.02;5.00;;;;;;;;;;6255533;28;20053;-84
2022/01/19 09:40:19;;;;;;;8.68;5.15;;;;;;;;;;6278032;28;20044;-83
2022/01/19 09:43:24;;;;;;;9.57;5.57;;;;;;;;;;6261566;28;20061;-84
2022/01/19 09:46:26;;;;;;;12.38;6.05;;;;;;;;;;6276613;28;20417;-85
2022/01/19 09:49:32;;;;;;;12.15;5.30;;;;;;;;;;6290942;28;20041;-82
2022/01/19 09:52:38;;;;;;;12.30;6.55;;;;;;;;;;6265845;28;20529;-84
2022/01/19 09:55:40;;;;;;;9.57;5.53;;;;;;;;;;6271893;28;20109;-84
2022/01/19 09:58:42;;;;;;;12.73;6.57;;;;;;;;;;6293897;28;20118;-84
2022/01/19 10:01:51;;;;;;;11.18;5.53;;;;;;;;;;6291528;28;20439;-81
2022/01/19 10:04:53;;;;;;;11.55;6.38;;;;;;;;;;6278149;28;20067;-85
2022/01/19 10:07:59;;;;;;;12.60;6.32;;;;;;;;;;6276191;28;20045;-85
2022/01/19 10:11:25;;;;;;;11.20;5.82;;;;;;;;;;6280462;28;20089;-82
2022/01/19 10:17:53;;;;;;;12.60;6.57;;;;;;;;;;6274346;28;20052;-84
2022/01/19 10:21:06;;;;;;;11.35;6.65;;;;;;;;;;6274220;28;20055;-82
2022/01/19 10:24:12;;;;;;;12.65;6.53;;;;;;;;;;6257407;28;20041;-86
2022/01/19 10:27:32;;;;;;;12.43;6.47;;;;;;;;;;6271384;28;20057;-83
2022/01/19 10:30:34;;;;;;;12.57;6.55;;;;;;;;;;6269777;28;20131;-81
2022/01/19 10:33:36;;;;;;;15.40;7.68;;;;;;;;;;6268072;28;20041;-82
2022/01/19 10:36:57;;;;;;;13.80;6.70;;;;;;;;;;6290035;28;20055;-83
2022/01/19 10:40:00;;;;;;;12.70;6.80;;;;;;;;;;6273086;28;20105;-84
2022/01/19 10:43:29;;;;;;;11.25;6.75;;;;;;;;;;6246718;28;20501;-83
2022/01/19 10:46:34;;;;;;;13.52;6.65;;;;;;;;;;6276439;28;20132;-85
2022/01/19 10:49:56;;;;;;;13.52;6.80;;;;;;;;;;6282902;28;20087;-85
2022/01/19 10:53:00;;;;;;;11.57;6.43;;;;;;;;;;6290118;28;20124;-85
2022/01/19 10:56:05;;;;;;;12.73;6.05;;;;;;;;;;6272464;28;20056;-83
2022/01/19 10:59:13;;;;;;;16.67;7.10;;;;;;;;;;6273408;28;20052;-83
2022/01/19 11:02:15;;;;;;;14.30;7.50;;;;;;;;;;6287816;28;20041;-86
2022/01/19 11:05:18;;;;;;;11.80;6.10;;;;;;;;;;6274125;28;20036;-83
2022/01/19 11:08:22;;;;;;;19.27;7.28;;;;;;;;;;6272838;28;20068;-82
2022/01/19 11:11:25;;;;;;;12.45;7.07;;;;;;;;;;6272709;28;20045;-84
2022/01/19 11:14:27;;;;;;;12.40;6.18;;;;;;;;;;6256853;28;20041;-82
2022/01/19 11:17:28;;;;;;;15.95;6.85;;;;;;;;;;6253688;28;20060;-84
2022/01/19 11:20:38;;;;;;;17.25;6.93;;;;;;;;;;6272843;28;20044;-84
2022/01/19 11:24:00;;;;;;;11.45;7.25;;;;;;;;;;6272639;28;20061;-84
2022/01/19 11:27:03;;;;;;;12.10;7.00;;;;;;;;;;6273587;28;21847;-82
2022/01/19 11:30:12;;;;;;;15.07;7.22;;;;;;;;;;6274862;28;20509;-82
2022/01/19 11:33:25;;;;;;;14.95;7.40;;;;;;;;;;6275412;28;20228;-79
2022/01/19 11:36:36;;;;;;;16.17;7.53;;;;;;;;;;6291483;28;20037;-83
2022/01/19 11:40:11;;;;;;;12.85;7.13;;;;;;;;;;6266857;28;20132;-83
2022/01/19 11:43:19;;;;;;;13.13;6.45;;;;;;;;;;6271894;28;20051;-84
2022/01/19 11:46:31;;;;;;;13.23;6.82;;;;;;;;;;6272670;28;20146;-84
2022/01/19 11:50:10;;;;;;;12.02;6.57;;;;;;;;;;6272176;28;20045;-82
2022/01/19 11:53:13;;;;;;;12.10;6.70;;;;;;;;;;6287611;28;20461;-83
2022/01/19 11:56:14;;;;;;;13.90;7.97;;;;;;;;;;6271924;28;20057;-83
2022/01/19 11:59:16;;;;;;;13.70;7.10;;;;;;;;;;6274164;28;20436;-83
2022/01/19 12:02:20;;;;;;;12.63;7.15;;;;;;;;;;6269234;28;20061;-84
2022/01/19 12:05:42;;;;;;;12.40;7.10;;;;;;;;;;6282258;28;20379;-84
2022/01/19 12:08:55;;;;;;;10.88;6.50;;;;;;;;;;6267653;28;20065;-82
2022/01/19 12:12:13;;;;;;;11.10;6.55;;;;;;;;;;6298812;28;20515;-83
2022/01/19 12:15:53;;;;;;;14.85;7.20;;;;;;;;;;6284788;28;20064;-83
2022/01/19 12:18:57;;;;;;;12.25;6.38;;;;;;;;;;6274736;28;20529;-86
2022/01/19 12:22:20;;;;;;;11.30;5.95;;;;;;;;;;6275603;28;20047;-84
2022/01/19 12:25:21;;;;;;;12.20;6.90;;;;;;;;;;6272242;28;20519;-85
2022/01/19 12:28:38;;;;;;;13.05;6.43;;;;;;;;;;6289511;28;20132;-84
2022/01/19 12:31:44;;;;;;;11.15;6.53;;;;;;;;;;6289396;28;20064;-86
2022/01/19 12:35:05;;;;;;;13.82;6.30;;;;;;;;;;6273766;28;20045;-85
2022/01/19 12:38:20;;;;;;;16.52;7.22;;;;;;;;;;6287837;28;20127;-85
2022/01/19 12:41:21;;;;;;;14.45;6.60;;;;;;;;;;6271535;28;20200;-83
2022/01/19 12:44:35;;;;;;;13.05;6.45;;;;;;;;;;6286884;28;20040;-84
2022/01/19 12:47:40;;;;;;;;;;;;;;;;;;6283731;28;20043;-84
2022/01/19 12:50:45;;;;;;;17.00;7.57;;;;;;;;;;6271760;28;19921;-84
2022/01/19 12:53:47;;;;;;;12.82;5.90;;;;;;;;;;6278345;28;20126;-83
2022/01/19 12:57:06;;;;;;;14.15;7.07;;;;;;;;;;6264881;28;20183;-82
2022/01/19 13:00:11;;;;;;;14.38;6.93;;;;;;;;;;6266333;28;20517;-84
2022/01/19 13:03:16;;;;;;;11.63;6.90;;;;;;;;;;6280589;28;20144;-85
2022/01/19 13:06:24;;;;;;;12.88;7.15;;;;;;;;;;6277109;28;20044;-86
2022/01/19 13:09:33;;;;;;;14.75;7.85;;;;;;;;;;6267546;28;20047;-84
2022/01/19 13:12:42;;;;;;;12.38;7.03;;;;;;;;;;6278601;28;20043;-82
2022/01/19 13:15:51;;;;;;;14.73;8.45;;;;;;;;;;6266865;28;20041;-83
2022/01/19 13:18:59;;;;;;;14.07;6.90;;;;;;;;;;6265821;28;20120;-83
2022/01/19 13:22:04;;;;;;;13.10;8.18;;;;;;;;;;6266720;28;20056;-86
2022/01/19 13:25:21;;;;;;;11.88;7.00;;;;;;;;;;6263117;28;20044;-81
2022/01/19 13:28:30;;;;;;;20.08;8.45;;;;;;;;;;6288917;28;20102;-84
2022/01/19 13:31:31;;;;;;;13.73;7.10;;;;;;;;;;6269332;28;20045;-82
2022/01/19 13:34:52;;;;;;;17.80;7.78;;;;;;;;;;6277479;28;20055;-82
2022/01/19 13:37:55;;;;;;;14.75;5.97;;;;;;;;;;6279013;28;20072;-82
2022/01/19 13:41:07;;;;;;;;;;;;;;;;;;6275741;28;20040;-82
2022/01/19 13:44:11;;;;;;;15.80;7.68;;;;;;;;;;6277989;28;19924;-83
2022/01/19 13:47:25;;;;;;;15.77;7.63;;;;;;;;;;6280193;28;20099;-84
2022/01/19 13:50:26;;;;;;;;;;;;;;;;;;6298860;28;20041;-87
2022/01/19 13:53:37;;;;;;;14.48;7.18;;;;;;;;;;6272475;28;19975;-83
2022/01/19 13:56:41;;;;;;;15.00;6.95;;;;;;;;;;6273735;28;20102;-83
2022/01/19 13:59:43;;;;;;;19.17;8.23;;;;;;;;;;6276423;28;20057;-81
2022/01/19 14:03:02;;;;;;;19.67;7.97;;;;;;;;;;6276270;28;20045;-84
2022/01/19 14:06:19;;;;;;;16.92;8.63;;;;;;;;;;6285781;28;20052;-81
2022/01/19 14:09:36;;;;;;;15.10;8.15;;;;;;;;;;6269307;28;20040;-82
2022/01/19 14:12:38;;;;;;;18.27;8.20;;;;;;;;;;6268179;28;20044;-81
2022/01/19 14:15:40;;;;;;;17.25;8.75;;;;;;;;;;6267336;28;20037;-82
2022/01/19 14:18:42;;;;;;;16.92;8.57;;;;;;;;;;6268449;28;20068;-85
2022/01/19 14:22:07;;;;;;;16.58;7.70;;;;;;;;;;6273024;28;20104;-83
2022/01/19 14:25:15;;;;;;;17.67;8.50;;;;;;;;;;6290533;28;20044;-83
2022/01/19 14:28:28;;;;;;;17.63;7.22;;;;;;;;;;6271696;28;20132;-82
2022/01/19 14:31:29;;;;;;;17.70;8.35;;;;;;;;;;6281207;28;20120;-82
2022/01/19 14:34:32;;;;;;;19.55;8.52;;;;;;;;;;6278075;28;20065;-84
2022/01/19 14:37:36;;;;;;;22.15;8.55;;;;;;;;;;6276416;28;20060;-84
2022/01/19 14:40:57;;;;;;;17.13;7.60;;;;;;;;;;6265476;28;20055;-83
2022/01/19 14:44:02;;;;;;;15.88;8.05;;;;;;;;;;6272849;28;20060;-82
2022/01/19 14:47:06;;;;;;;19.98;8.30;;;;;;;;;;6292892;28;20125;-83
2022/01/19 14:50:36;;;;;;;16.83;7.95;;;;;;;;;;6276480;28;20104;-85
2022/01/19 14:53:37;;;;;;;18.27;7.78;;;;;;;;;;6277980;28;20128;-84
2022/01/19 14:56:42;;;;;;;18.05;7.97;;;;;;;;;;6248179;28;20105;-83
2022/01/19 14:59:44;;;;;;;17.05;7.60;;;;;;;;;;6254028;28;20045;-86
2022/01/19 15:02:49;;;;;;;18.40;7.30;;;;;;;;;;6261854;28;20116;-84
2022/01/19 15:05:51;;;;;;;15.48;6.22;;;;;;;;;;6251137;28;20049;-86
2022/01/19 15:08:53;;;;;;;23.70;10.52;;;;;;;;;;6249368;28;20049;-85
2022/01/19 15:11:54;;;;;;;22.23;9.27;;;;;;;;;;6275637;28;20110;-82
2022/01/19 15:14:57;;;;;;;17.27;8.40;;;;;;;;;;6289718;28;20041;-85
2022/01/19 15:18:02;;;;;;;18.30;8.17;;;;;;;;;;6289879;28;20069;-81
2022/01/19 15:21:03;;;;;;;16.75;8.10;;;;;;;;;;6271899;28;20535;-80
2022/01/19 15:24:05;;;;;;;13.73;7.32;;;;;;;;;;6274006;28;20211;-84
2022/01/19 15:27:13;;;;;;;20.15;8.57;;;;;;;;;;6274230;28;20061;-82
2022/01/19 15:30:15;;;;;;;15.07;6.78;;;;;;;;;;6291759;28;20280;-80
2022/01/19 15:33:17;;;;;;;13.55;5.97;;;;;;;;;;6284574;28;20112;-81
2022/01/19 15:36:18;;;;;;;18.05;8.35;;;;;;;;;;6293376;28;20489;-83
2022/01/19 15:39:20;;;;;;;18.73;7.88;;;;;;;;;;6270046;28;20059;-82
2022/01/19 15:42:22;;;;;;;18.58;7.78;;;;;;;;;;6270357;28;20393;-83
2022/01/19 15:45:23;;;;;;;15.93;7.30;;;;;;;;;;6264460;28;20517;-82
2022/01/19 15:48:26;;;;;;;17.77;7.88;;;;;;;;;;6284817;28;20055;-84
2022/01/19 15:51:28;;;;;;;15.20;7.03;;;;;;;;;;6291367;28;20396;-85
2022/01/19 15:54:30;;;;;;;17.05;7.32;;;;;;;;;;6270190;28;20059;-86
2022/01/19 15:57:32;;;;;;;18.67;8.50;;;;;;;;;;6269307;28;20041;-83
2022/01/19 16:00:34;;;;;;;18.25;8.55;;;;;;;;;;6269560;28;20049;-83
2022/01/19 16:03:36;;;;;;;18.45;8.15;;;;;;;;;;6266074;28;20048;-84
2022/01/19 16:06:42;;;;;;;18.45;8.32;;;;;;;;;;6266356;28;20047;-83
2022/01/19 16:09:44;;;;;;;20.33;8.75;;;;;;;;;;6265554;28;20052;-86
2022/01/19 16:12:45;;;;;;;20.17;8.63;;;;;;;;;;6267434;28;20114;-84
2022/01/19 16:15:47;;;;;;;19.63;7.80;;;;;;;;;;6282784;28;20405;-83
2022/01/19 16:18:49;;;;;;;20.77;8.82;;;;;;;;;;6266393;28;20548;-82
2022/01/19 16:22:15;;;;;;;16.52;8.40;;;;;;;;;;6265385;28;20053;-82
2022/01/19 16:28:40;;;;;;;21.13;8.75;;;;;;;;;;6268251;28;20105;-82
2022/01/19 16:31:44;;;;;;;17.33;8.80;;;;;;;;;;6282241;28;20037;-84
2022/01/19 16:34:48;;;;;;;19.67;8.38;;;;;;;;;;6265606;28;20685;-83
2022/01/19 16:37:53;;;;;;;19.27;8.60;;;;;;;;;;6266218;28;20043;-81
2022/01/19 16:40:55;;;;;;;22.15;9.70;;;;;;;;;;6267297;28;20052;-84
2022/01/19 16:43:56;;;;;;;16.30;8.00;;;;;;;;;;6267848;28;20123;-81
2022/01/19 16:47:12;;;;;;;21.25;8.35;;;;;;;;;;6278018;28;20159;-78
2022/01/19 16:50:13;;;;;;;16.30;7.60;;;;;;;;;;6248506;28;20476;-79
2022/01/19 16:53:16;;;;;;;21.65;8.55;;;;;;;;;;6266024;28;20045;-79
2022/01/19 16:56:18;;;;;;;17.02;7.25;;;;;;;;;;6266006;28;20037;-81
2022/01/19 16:59:20;;;;;;;14.77;7.93;;;;;;;;;;6262809;28;20049;-79
2022/01/19 17:02:22;;;;;;;15.57;7.05;;;;;;;;;;6279003;28;20052;-78
2022/01/19 17:05:23;;;;;;;17.55;8.35;;;;;;;;;;6270088;28;20118;-81
2022/01/19 17:08:26;;;;;;;14.73;7.88;;;;;;;;;;6268566;28;20036;-80
2022/01/19 17:11:28;;;;;;;16.02;8.50;;;;;;;;;;6265441;28;20053;-81
2022/01/19 17:14:40;;;;;;;16.92;7.68;;;;;;;;;;6271753;28;20044;-80
2022/01/19 17:17:50;;;;;;;18.25;8.80;;;;;;;;;;6272796;28;20390;-80
2022/01/19 17:21:16;;;;;;;20.35;9.65;;;;;;;;;;6275598;28;20041;-79
2022/01/19 17:24:18;;;;;;;18.05;9.00;;;;;;;;;;6271342;28;20156;-78
2022/01/19 17:27:20;;;;;;;20.13;9.02;;;;;;;;;;6266612;28;20037;-79
2022/01/19 17:30:22;;;;;;;9.57;5.32;;;;;;;;;;6267697;28;20417;-79
2022/01/19 17:33:24;;;;;;;15.40;7.57;;;;;;;;;;6265884;28;20044;-80
2022/01/19 17:36:25;;;;;;;19.15;9.15;;;;;;;;;;6264465;28;20131;-81
2022/01/19 17:39:27;;;;;;;18.27;8.55;;;;;;;;;;6262446;28;20759;-79
2022/01/19 17:42:31;;;;;;;20.35;8.48;;;;;;;;;;6263260;28;20040;-79
2022/01/19 17:45:42;;;;;;;;;;;;;;;;;;6267533;28;20070;-77
2022/01/19 17:51:49;;;;;;;20.85;8.52;;;;;;;;;;6244025;28;20130;-79
2022/01/19 17:54:51;;;;;;;17.30;8.57;;;;;;;;;;6266031;28;20041;-80
2022/01/19 17:57:53;;;;;;;18.63;8.52;;;;;;;;;;6266181;28;20051;-81
2022/01/19 18:00:54;;;;;;;20.65;9.05;;;;;;;;;;6261435;28;20615;-80
2022/01/19 18:03:58;;;;;;;23.33;9.52;;;;;;;;;;6225284;28;20049;-78
2022/01/19 18:06:59;;;;;;;;;;;;;;;;;;6240572;28;20057;-79
2022/01/19 18:10:03;;;;;;;18.05;7.75;;;;;;;;;;6241719;28;20036;-82
2022/01/19 18:13:04;;;;;;;;;;;;;;;;;;6268444;28;20049;-81
2022/01/19 18:16:06;;;;;;;18.38;7.93;;;;;;;;;;6281389;28;20015;-78
2022/01/19 18:19:08;;;;;;;19.25;8.50;;;;;;;;;;6266935;28;20166;-81
2022/01/19 18:22:10;;;;;;;19.17;8.48;;;;;;;;;;6250274;28;20170;-81
2022/01/19 18:25:12;;;;;;;23.60;10.75;;;;;;;;;;6264334;28;20055;-82
2022/01/19 18:28:13;;;;;;;17.08;7.72;;;;;;;;;;6281633;28;20525;-82
2022/01/19 18:31:19;;;;;;;17.23;7.55;;;;;;;;;;6266333;28;20045;-79
2022/01/19 18:34:21;;;;;;;18.50;8.93;;;;;;;;;;6265604;28;20060;-80
2022/01/19 18:37:22;;;;;;;16.98;7.80;;;;;;;;;;6266318;28;20498;-80
2022/01/19 18:40:29;;;;;;;17.05;8.35;;;;;;;;;;6263775;28;20048;-81
2022/01/19 18:43:32;;;;;;;15.60;8.38;;;;;;;;;;6281037;28;20513;-80
2022/01/19 18:46:34;;;;;;;16.05;7.97;;;;;;;;;;6267145;28;20645;-79
2022/01/19 18:49:36;;;;;;;17.15;8.13;;;;;;;;;;6274954;28;20100;-79
2022/01/19 18:52:40;;;;;;;15.80;8.32;;;;;;;;;;6284688;28;20052;-78
2022/01/19 18:55:43;;;;;;;;;;;;;;;;;;6292951;28;20052;-81
2022/01/19 18:58:45;;;;;;;14.18;6.80;;;;;;;;;;6251859;28;20320;-80
2022/01/19 19:01:47;;;;;;;15.93;6.80;;;;;;;;;;6266455;28;20433;-79
2022/01/19 19:04:49;;;;;;;17.35;7.50;;;;;;;;;;6269024;28;20049;-82
2022/01/19 19:07:51;;;;;;;17.65;7.53;;;;;;;;;;6269120;28;20049;-82
2022/01/19 19:11:06;;;;;;;16.25;7.90;;;;;;;;;;6273041;28;20047;-82
2022/01/19 19:14:07;;;;;;;16.73;7.43;;;;;;;;;;6285573;28;20064;-80
2022/01/19 19:17:09;;;;;;;15.52;7.35;;;;;;;;;;6283526;28;20041;-81
2022/01/19 19:20:13;;;;;;;17.77;7.63;;;;;;;;;;6283499;28;20063;-82
2022/01/19 19:23:15;;;;;;;15.10;7.13;;;;;;;;;;6269381;28;20061;-82
2022/01/19 19:26:17;;;;;;;16.63;7.28;;;;;;;;;;6265919;28;20051;-82
2022/01/19 19:29:19;;;;;;;13.80;6.28;;;;;;;;;;6289377;28;20041;-78
2022/01/19 19:32:21;;;;;;;12.63;6.00;;;;;;;;;;6280224;28;20045;-80
2022/01/19 19:35:24;;;;;;;11.45;5.40;;;;;;;;;;6274062;28;20045;-81
2022/01/19 19:38:25;;;;;;;9.70;5.30;;;;;;;;;;6242374;28;20147;-81
2022/01/19 19:41:29;;;;;;;11.27;5.07;;;;;;;;;;6265467;28;20443;-79
2022/01/19 19:44:32;;;;;;;11.45;5.13;;;;;;;;;;6269385;28;20049;-81
2022/01/19 19:47:35;;;;;;;8.32;4.55;;;;;;;;;;6266983;28;20053;-82
2022/01/19 19:50:36;;;;;;;9.90;5.23;;;;;;;;;;6263559;28;20041;-82